Terminal Aerodrome Forecast
Issued by NWS

Home | Current Version | Previous Version | Text Only | Print | Product List | Glossary On
Versions: 1 2 3 4 5 6 7 8 9 10 11 12 13 14
000
FTUS45 KTFX 211700
TAFGTF
TAF
KGTF 211731Z 2118/2218 25018G27KT P6SM SCT110
      TEMPO 2119/2123 24023G38KT
     FM220200 26015G21KT P6SM BKN090
     FM220800 24011KT P6SM BKN100=

USA.gov is the U.S. government's official web portal to all federal, state and local government web resources and services.